Time;durP1;ratioP1;P1;durP2;ratioP2;P2;SDS_P1;SDS_P2;PMS_P1;PMS_P2;Temp;Humidity;BMP_temperature;BMP_pressure;BME280_temperature;BME280_humidity;BME280_pressure;Samples;Min_cycle;Max_cycle;Signal;HPM_P1;HPM_P2
2023/12/02 00:01:55;;;;;;;35.00;32.25;;;;;;;-0.17;100.00;100228.91;4921372;29;20063;-80
2023/12/02 00:04:21;;;;;;;32.38;29.73;;;;;;;-0.68;100.00;100236.34;4919100;29;20499;-79
2023/12/02 00:06:48;;;;;;;36.42;33.33;;;;;;;-0.46;100.00;100217.66;4923694;29;20413;-79
2023/12/02 00:09:15;;;;;;;37.70;34.00;;;;;;;-0.14;100.00;100229.41;4921602;29;20052;-80
2023/12/02 00:11:44;;;;;;;38.33;35.53;;;;;;;-0.30;100.00;100231.88;4922983;29;20051;-79
2023/12/02 00:14:11;;;;;;;33.33;30.23;;;;;;;-0.39;100.00;100233.56;4917595;29;20047;-79
2023/12/02 00:16:38;;;;;;;32.67;29.85;;;;;;;-0.29;100.00;100223.88;4915406;28;20075;-79
2023/12/02 00:19:05;;;;;;;40.53;37.35;;;;;;;-0.30;100.00;100224.88;4920741;29;20532;-80
2023/12/02 00:21:33;;;;;;;38.47;35.75;;;;;;;-0.27;100.00;100221.97;4926554;29;20051;-79
2023/12/02 00:24:14;;;;;;;31.67;29.38;;;;;;;-0.40;100.00;100228.50;4922425;29;20052;-79
2023/12/02 00:26:41;;;;;;;34.42;31.80;;;;;;;-0.32;100.00;100218.16;4920066;29;20059;-80
2023/12/02 00:29:10;;;;;;;39.83;37.03;;;;;;;-0.54;100.00;100219.38;4923773;29;20055;-80
2023/12/02 00:31:37;;;;;;;33.50;31.00;;;;;;;-0.48;100.00;100217.00;4929720;29;20056;-79
2023/12/02 00:34:06;;;;;;;34.78;32.17;;;;;;;-0.68;100.00;100206.81;4928896;29;20538;-77
2023/12/02 00:36:33;;;;;;;42.15;39.45;;;;;;;-0.49;100.00;100211.91;4926374;29;20060;-78
2023/12/02 00:39:00;;;;;;;37.30;34.35;;;;;;;-0.51;100.00;100209.47;4926928;29;20058;-77
2023/12/02 00:41:27;;;;;;;35.53;32.88;;;;;;;-0.41;100.00;100195.53;4924630;29;20058;-78
2023/12/02 00:43:54;;;;;;;33.08;30.42;;;;;;;-0.37;100.00;100195.09;4927423;29;20063;-78
2023/12/02 00:46:22;;;;;;;44.72;40.45;;;;;;;-0.35;100.00;100200.19;4927515;29;20060;-79
2023/12/02 00:48:49;;;;;;;35.55;32.40;;;;;;;-0.50;100.00;100185.00;4929975;29;20051;-79
2023/12/02 00:51:19;;;;;;;31.77;29.40;;;;;;;-0.61;100.00;100190.44;4927136;29;20443;-79
2023/12/02 00:53:46;;;;;;;32.17;29.65;;;;;;;-0.52;100.00;100197.38;4927839;29;20063;-80
2023/12/02 00:56:13;;;;;;;27.02;24.92;;;;;;;-0.56;100.00;100193.44;4929553;29;20060;-80
2023/12/02 00:58:39;;;;;;;36.42;33.05;;;;;;;-0.53;100.00;100200.16;4920157;29;20052;-80
2023/12/02 01:01:07;;;;;;;36.83;33.80;;;;;;;-0.58;100.00;100202.38;4921540;29;20055;-79
2023/12/02 01:03:36;;;;;;;32.00;29.55;;;;;;;-0.48;100.00;100192.72;4922978;29;20079;-78
2023/12/02 01:06:03;;;;;;;35.53;32.78;;;;;;;-0.51;100.00;100193.81;4918813;29;20077;-78
2023/12/02 01:08:30;;;;;;;36.33;33.60;;;;;;;-0.63;100.00;100196.78;4921758;29;20048;-78
2023/12/02 01:10:57;;;;;;;34.92;30.83;;;;;;;-0.65;100.00;100191.69;4925483;29;20059;-79
2023/12/02 01:13:24;;;;;;;36.78;33.92;;;;;;;-0.66;100.00;100184.03;4915312;29;20055;-80
2023/12/02 01:15:50;;;;;;;41.05;37.70;;;;;;;-0.49;100.00;100197.09;4922317;29;20055;-80
2023/12/02 01:18:17;;;;;;;34.38;31.13;;;;;;;-0.45;100.00;100192.41;4919554;29;20047;-79
2023/12/02 01:20:46;;;;;;;31.27;28.98;;;;;;;-0.41;100.00;100193.75;4915142;29;20060;-79
2023/12/02 01:23:13;;;;;;;36.13;33.00;;;;;;;-0.43;100.00;100192.25;4913179;29;20052;-78
2023/12/02 01:25:40;;;;;;;30.38;28.15;;;;;;;-0.43;100.00;100181.81;4915582;29;20060;-78
2023/12/02 01:28:07;;;;;;;38.30;35.28;;;;;;;-0.39;100.00;100180.53;4916165;29;20056;-78
2023/12/02 01:30:42;;;;;;;38.28;35.60;;;;;;;-0.47;100.00;100181.28;4921852;29;20059;-80
2023/12/02 01:33:09;;;;;;;34.83;31.98;;;;;;;-0.49;100.00;100191.03;4928819;29;20051;-78
2023/12/02 01:35:36;;;;;;;36.28;32.85;;;;;;;-0.53;100.00;100193.13;4933370;29;20059;-80
2023/12/02 01:38:05;;;;;;;34.58;31.90;;;;;;;-0.48;100.00;100175.25;4934452;29;20055;-79
2023/12/02 01:40:31;;;;;;;28.45;26.27;;;;;;;-0.61;100.00;100177.38;4934035;29;20444;-78
2023/12/02 01:42:58;;;;;;;34.58;31.48;;;;;;;-0.54;100.00;100182.88;4932954;29;20056;-78
2023/12/02 01:45:25;;;;;;;37.00;34.13;;;;;;;-0.55;100.00;100182.00;4928917;29;20127;-78
2023/12/02 01:47:52;;;;;;;35.92;32.85;;;;;;;-0.50;100.00;100169.34;4932944;29;20052;-78
2023/12/02 01:50:21;;;;;;;38.90;35.90;;;;;;;-0.43;100.00;100171.38;4929657;29;20052;-78
2023/12/02 01:52:48;;;;;;;34.63;31.95;;;;;;;-0.45;100.00;100171.53;4922359;29;20085;-78
2023/12/02 01:55:17;;;;;;;38.13;34.95;;;;;;;-0.46;100.00;100181.13;4928314;28;20476;-78
2023/12/02 01:57:44;;;;;;;33.10;30.55;;;;;;;-0.52;100.00;100181.72;4924979;29;20161;-78
2023/12/02 02:00:13;;;;;;;30.83;28.42;;;;;;;-0.56;100.00;100172.56;4921610;29;20051;-80
2023/12/02 02:02:40;;;;;;;33.22;30.52;;;;;;;-0.58;100.00;100174.47;4929851;29;20066;-80
2023/12/02 02:05:07;;;;;;;29.85;27.63;;;;;;;-0.59;100.00;100170.25;4926515;29;20062;-80
2023/12/02 02:07:34;;;;;;;32.42;29.50;;;;;;;-0.66;100.00;100165.78;4926811;29;20493;-79
2023/12/02 02:10:02;;;;;;;32.50;29.83;;;;;;;-0.54;100.00;100162.81;4927629;29;20126;-79
2023/12/02 02:12:30;;;;;;;34.10;31.08;;;;;;;-0.42;100.00;100163.41;4927189;29;20051;-78
2023/12/02 02:14:57;;;;;;;39.95;32.20;;;;;;;-0.65;100.00;100163.00;4926659;29;20124;-78
2023/12/02 02:17:24;;;;;;;33.22;30.52;;;;;;;-0.85;100.00;100161.47;4926946;29;20131;-78
2023/12/02 02:19:51;;;;;;;42.42;35.78;;;;;;;-0.65;100.00;100151.75;4925390;29;20053;-78
2023/12/02 02:22:19;;;;;;;38.20;34.88;;;;;;;-0.51;100.00;100154.69;4930602;29;20058;-78
2023/12/02 02:24:48;;;;;;;37.83;34.55;;;;;;;-0.50;100.00;100158.91;4926529;29;20047;-78
2023/12/02 02:27:15;;;;;;;36.38;33.25;;;;;;;-0.39;100.00;100159.66;4931519;29;20525;-78
2023/12/02 02:29:42;;;;;;;31.23;28.80;;;;;;;-0.27;100.00;100164.53;4916077;29;20062;-77
2023/12/02 02:32:09;;;;;;;35.30;31.67;;;;;;;-0.51;100.00;100164.31;4935052;29;20048;-78
2023/12/02 02:34:36;;;;;;;40.78;36.88;;;;;;;-0.44;100.00;100162.72;4933556;29;20110;-78
2023/12/02 02:37:05;;;;;;;38.95;35.05;;;;;;;-0.46;100.00;100173.31;4933472;29;20047;-78
2023/12/02 02:39:33;;;;;;;36.03;33.15;;;;;;;-0.40;100.00;100173.69;4929132;29;20047;-78
2023/12/02 02:42:05;;;;;;;36.25;33.17;;;;;;;-0.42;100.00;100167.78;4928777;29;20448;-78
2023/12/02 02:44:32;;;;;;;;;;;;;;;-0.47;100.00;100165.63;4915317;29;20444;-78
2023/12/02 02:46:59;;;;;;;37.63;34.83;;;;;;;-0.63;100.00;100166.28;4924512;29;19922;-78
2023/12/02 02:49:26;;;;;;;34.28;31.55;;;;;;;-0.67;100.00;100162.31;4928316;29;20052;-78
2023/12/02 02:51:53;;;;;;;46.63;42.67;;;;;;;-0.77;100.00;100153.75;4924349;29;20066;-78
2023/12/02 02:54:20;;;;;;;38.85;35.85;;;;;;;-0.67;100.00;100133.63;4927206;29;20044;-78
2023/12/02 02:56:49;;;;;;;37.97;35.08;;;;;;;-0.55;100.00;100135.06;4928470;29;20496;-78
2023/12/02 02:59:16;;;;;;;39.80;36.45;;;;;;;-0.58;100.00;100137.97;4928189;29;20524;-78
2023/12/02 03:01:47;;;;;;;42.38;38.25;;;;;;;-0.45;100.00;100135.00;4925569;29;20051;-78
2023/12/02 03:04:14;;;;;;;45.13;40.95;;;;;;;-0.47;100.00;100123.91;4925734;29;20048;-79
2023/12/02 03:06:41;;;;;;;39.88;36.42;;;;;;;-0.35;100.00;100133.13;4925936;29;20526;-78
2023/12/02 03:09:11;;;;;;;42.85;39.30;;;;;;;-0.22;100.00;100139.78;4925208;29;20165;-78
2023/12/02 03:11:38;;;;;;;38.33;34.25;;;;;;;-0.16;100.00;100134.75;4926178;29;20044;-78
2023/12/02 03:14:07;;;;;;;45.35;41.08;;;;;;;-0.41;100.00;100138.94;4926529;29;20465;-78
2023/12/02 03:16:34;;;;;;;50.22;46.17;;;;;;;-0.50;100.00;100132.84;4926190;29;20059;-78
2023/12/02 03:19:02;;;;;;;39.70;36.35;;;;;;;-0.49;100.00;100131.84;4925707;29;20058;-78
2023/12/02 03:21:29;;;;;;;47.78;41.92;;;;;;;-0.54;100.00;100134.09;4925939;29;20055;-78
2023/12/02 03:23:56;;;;;;;47.30;43.63;;;;;;;-0.52;100.00;100136.56;4921267;29;20054;-80
2023/12/02 03:26:24;;;;;;;50.17;45.67;;;;;;;-0.49;100.00;100134.47;4923579;29;20077;-79
2023/12/02 03:28:51;;;;;;;47.13;42.72;;;;;;;-0.34;100.00;100134.75;4922785;29;20051;-86
2023/12/02 03:31:20;;;;;;;49.67;45.50;;;;;;;0.87;100.00;100130.50;4922667;29;20044;-78
2023/12/02 03:33:49;;;;;;;43.88;40.58;;;;;;;-0.03;100.00;100139.59;4928390;29;20047;-78
2023/12/02 03:36:16;;;;;;;41.13;37.70;;;;;;;-0.21;100.00;100146.63;4924938;29;20063;-78
2023/12/02 03:38:43;;;;;;;37.22;33.28;;;;;;;-0.28;100.00;100146.41;4924523;29;20056;-78
2023/12/02 03:41:10;;;;;;;41.20;37.90;;;;;;;-0.33;100.00;100141.66;4926274;29;20504;-78
2023/12/02 03:43:37;;;;;;;43.75;39.17;;;;;;;-0.19;100.00;100147.31;4920033;29;20056;-78
2023/12/02 03:46:05;;;;;;;41.13;37.85;;;;;;;-0.33;100.00;100146.06;4921926;29;20060;-78
2023/12/02 03:48:33;;;;;;;42.38;39.08;;;;;;;-0.33;100.00;100140.84;4921617;29;20149;-78
2023/12/02 03:51:00;;;;;;;36.25;32.47;;;;;;;-0.25;100.00;100140.88;4922485;29;20048;-78
2023/12/02 03:53:30;;;;;;;40.20;37.10;;;;;;;-0.22;100.00;100140.59;4922135;29;20098;-80
2023/12/02 03:55:57;;;;;;;41.80;38.03;;;;;;;-0.22;100.00;100139.78;4925767;29;20466;-80
2023/12/02 03:58:26;;;;;;;40.03;36.30;;;;;;;-0.20;100.00;100135.22;4926947;29;20171;-80
2023/12/02 04:00:52;;;;;;;39.00;36.00;;;;;;;-0.05;100.00;100129.31;4925440;29;20055;-80
2023/12/02 04:03:19;;;;;;;36.13;33.33;;;;;;;0.14;100.00;100132.72;4928215;29;20054;-80
2023/12/02 04:05:48;;;;;;;33.00;30.40;;;;;;;-0.12;100.00;100123.06;4929069;29;20429;-80
2023/12/02 04:08:15;;;;;;;33.25;30.65;;;;;;;-0.10;100.00;100117.69;4931947;29;20063;-80
2023/12/02 04:10:42;;;;;;;32.15;29.55;;;;;;;-0.20;100.00;100125.59;4931486;29;20063;-80
2023/12/02 04:13:10;;;;;;;34.80;31.77;;;;;;;-0.34;100.00;100121.72;4923952;29;20082;-80
2023/12/02 04:15:37;;;;;;;38.20;35.35;;;;;;;-0.33;100.00;100118.16;4931713;29;20420;-80
2023/12/02 04:18:04;;;;;;;37.40;34.65;;;;;;;-0.27;100.00;100112.34;4931968;29;20055;-80
2023/12/02 04:20:32;;;;;;;40.00;36.15;;;;;;;-0.32;100.00;100105.94;4930058;29;20560;-80
2023/12/02 04:23:00;;;;;;;33.38;30.65;;;;;;;-0.32;100.00;100100.72;4927067;29;20073;-80
2023/12/02 04:25:27;;;;;;;34.83;31.88;;;;;;;-0.32;100.00;100098.09;4927277;29;20083;-80
2023/12/02 04:27:54;;;;;;;42.95;39.70;;;;;;;-0.17;100.00;100098.38;4922883;29;20141;-80
2023/12/02 04:30:21;;;;;;;35.80;33.13;;;;;;;-0.29;100.00;100088.16;4933964;29;20048;-80
2023/12/02 04:32:48;;;;;;;36.10;32.50;;;;;;;-0.16;100.00;100076.53;4929350;29;20432;-79
2023/12/02 04:35:15;;;;;;;32.53;29.92;;;;;;;-0.02;100.00;100079.41;4928868;29;20493;-80
2023/12/02 04:37:42;;;;;;;39.03;35.97;;;;;;;-0.28;100.00;100084.59;4925234;29;20051;-78
2023/12/02 04:40:11;;;;;;;37.38;34.45;;;;;;;-0.03;100.00;100095.19;4938387;29;20051;-78
2023/12/02 04:42:39;;;;;;;33.13;30.52;;;;;;;-0.01;100.00;100106.31;4922428;29;20052;-78
2023/12/02 04:45:08;;;;;;;48.97;44.92;;;;;;;-0.14;100.00;100108.53;4928582;29;20140;-78
2023/12/02 04:47:36;;;;;;;46.60;43.22;;;;;;;-0.13;100.00;100107.53;4925369;29;20151;-78
2023/12/02 04:50:03;;;;;;;43.85;40.55;;;;;;;-0.25;100.00;100099.94;4922752;29;20066;-78
2023/12/02 04:52:30;;;;;;;35.00;31.92;;;;;;;-0.16;100.00;100106.03;4923797;29;20107;-78
2023/12/02 04:54:57;;;;;;;47.70;44.00;;;;;;;-0.30;100.00;100094.38;4924517;29;20095;-78
2023/12/02 04:57:26;;;;;;;42.03;39.05;;;;;;;-0.37;100.00;100108.16;4925765;29;20052;-80
2023/12/02 04:59:53;;;;;;;43.70;40.10;;;;;;;-0.22;100.00;100106.66;4913640;29;20456;-80
2023/12/02 05:02:20;;;;;;;43.38;39.95;;;;;;;-0.26;100.00;100116.56;4921043;29;20111;-78
2023/12/02 05:04:47;;;;;;;37.05;33.92;;;;;;;-0.19;100.00;100108.97;4922773;29;20123;-80
2023/12/02 05:07:26;;;;;;;40.67;37.67;;;;;;;-0.32;100.00;100116.38;4930398;29;20052;-80
2023/12/02 05:09:53;;;;;;;40.53;37.13;;;;;;;-0.37;100.00;100118.59;4942592;29;20151;-80
2023/12/02 05:12:20;;;;;;;35.33;32.42;;;;;;;-0.34;100.00;100100.03;4936412;29;20047;-80
2023/12/02 05:14:48;;;;;;;32.75;30.35;;;;;;;-0.50;100.00;100093.69;4934219;29;20044;-79
2023/12/02 05:17:15;;;;;;;32.17;29.48;;;;;;;-0.39;100.00;100099.66;4929742;29;20047;-79
2023/12/02 05:19:48;;;;;;;31.45;28.83;;;;;;;-0.33;100.00;100107.72;4924840;29;20779;-80
2023/12/02 05:22:17;;;;;;;;;;;;;;;-0.50;100.00;100109.34;4927836;29;20075;-80
2023/12/02 05:24:44;;;;;;;32.45;30.05;;;;;;;-0.28;100.00;100099.44;4921943;29;19923;-80
2023/12/02 05:27:11;;;;;;;36.13;33.17;;;;;;;-0.44;100.00;100094.06;4925004;29;20051;-80
2023/12/02 05:29:38;;;;;;;44.50;40.08;;;;;;;-0.69;100.00;100101.69;4934969;29;20435;-80
2023/12/02 05:32:07;;;;;;;36.25;33.38;;;;;;;-0.53;100.00;100101.00;4928529;29;20142;-79
2023/12/02 05:34:34;;;;;;;34.75;32.20;;;;;;;-0.35;100.00;100090.56;4932145;29;20050;-79
2023/12/02 05:37:07;;;;;;;36.85;34.20;;;;;;;-0.13;100.00;100084.03;4929511;29;20062;-80
2023/12/02 05:39:35;;;;;;;35.58;32.85;;;;;;;-0.13;100.00;100089.25;4931844;29;20087;-80
2023/12/02 05:42:03;;;;;;;30.58;28.27;;;;;;;-0.12;100.00;100085.69;4936238;29;20047;-80
2023/12/02 05:44:30;;;;;;;26.48;24.60;;;;;;;-0.09;100.00;100093.19;4939280;29;20051;-80
2023/12/02 05:46:57;;;;;;;31.67;29.30;;;;;;;-0.18;100.00;100092.34;4928719;29;20050;-80
2023/12/02 05:49:25;;;;;;;28.35;26.38;;;;;;;-0.10;100.00;100097.59;4935600;29;20455;-79
2023/12/02 05:51:52;;;;;;;30.20;28.10;;;;;;;-0.07;100.00;100086.06;4933979;29;20067;-78
2023/12/02 05:54:19;;;;;;;30.60;28.40;;;;;;;-0.16;100.00;100082.56;4929745;29;20082;-78
2023/12/02 05:56:52;;;;;;;30.63;28.20;;;;;;;-0.31;100.00;100081.47;4930512;29;20159;-78
2023/12/02 05:59:19;;;;;;;32.35;30.15;;;;;;;-0.12;100.00;100072.63;4925517;29;20523;-78
2023/12/02 06:01:49;;;;;;;32.28;30.15;;;;;;;-0.01;100.00;100067.16;4922543;29;20066;-78
2023/12/02 06:04:16;;;;;;;30.90;28.90;;;;;;;-0.21;100.00;100079.59;4923060;29;20059;-78
2023/12/02 06:06:47;;;;;;;29.63;27.67;;;;;;;0.09;100.00;100086.19;4927394;29;20054;-78
2023/12/02 06:09:14;;;;;;;28.58;26.67;;;;;;;0.17;100.00;100094.03;4927726;29;20058;-78
2023/12/02 06:11:41;;;;;;;31.63;29.63;;;;;;;0.34;100.00;100084.53;4920448;29;20127;-78
2023/12/02 06:14:08;;;;;;;30.55;28.42;;;;;;;0.48;100.00;100095.38;4925410;29;20047;-78
2023/12/02 06:16:35;;;;;;;32.80;30.67;;;;;;;0.47;100.00;100086.72;4927912;29;20432;-78
2023/12/02 06:19:02;;;;;;;30.73;28.73;;;;;;;0.34;100.00;100083.72;4929273;29;20641;-78
2023/12/02 06:21:35;;;;;;;30.85;28.45;;;;;;;0.50;100.00;100069.91;4921564;29;20052;-78
2023/12/02 06:24:04;;;;;;;28.80;26.70;;;;;;;0.95;100.00;100064.34;4918182;29;20115;-78
2023/12/02 06:26:31;;;;;;;28.92;26.83;;;;;;;1.01;100.00;100073.38;4930483;29;20915;-79
2023/12/02 06:28:57;;;;;;;38.20;35.20;;;;;;;1.37;100.00;100084.38;4923778;29;20051;-78
2023/12/02 06:31:24;;;;;;;37.38;34.28;;;;;;;2.53;100.00;100069.19;4925514;29;20056;-78
2023/12/02 06:33:51;;;;;;;43.63;40.08;;;;;;;2.89;100.00;100066.09;4923088;29;20048;-78
2023/12/02 06:36:18;;;;;;;52.22;47.97;;;;;;;3.22;100.00;100061.47;4924570;29;20048;-78
2023/12/02 06:38:47;;;;;;;46.42;42.55;;;;;;;3.52;100.00;100066.88;4927317;29;20156;-78
2023/12/02 06:41:15;;;;;;;42.97;39.63;;;;;;;4.77;100.00;100071.53;4920632;29;20059;-78
2023/12/02 06:43:42;;;;;;;49.13;45.15;;;;;;;5.05;100.00;100069.03;4920691;29;20509;-78
2023/12/02 06:46:10;;;;;;;48.97;45.25;;;;;;;6.54;100.00;100067.25;4922743;29;20479;-78
2023/12/02 06:48:36;;;;;;;37.28;34.38;;;;;;;5.56;100.00;100076.03;4926262;29;20555;-80
2023/12/02 06:51:04;;;;;;;43.50;39.90;;;;;;;6.06;100.00;100080.34;4921113;29;20432;-80
2023/12/02 06:53:31;;;;;;;49.65;45.70;;;;;;;6.41;100.00;100077.72;4923971;29;20578;-80
2023/12/02 06:55:58;;;;;;;49.80;45.90;;;;;;;6.01;100.00;100085.38;4925247;28;20048;-80
2023/12/02 06:58:27;;;;;;;48.83;44.88;;;;;;;6.83;100.00;100079.34;4921243;29;20559;-80
2023/12/02 07:00:54;;;;;;;50.10;46.30;;;;;;;6.58;100.00;100076.41;4921223;29;20174;-80
2023/12/02 07:03:21;;;;;;;52.63;48.60;;;;;;;7.09;100.00;100073.38;4922864;29;20063;-80
2023/12/02 07:05:50;;;;;;;62.22;57.70;;;;;;;7.47;100.00;100074.66;4925216;29;20048;-80
2023/12/02 07:08:17;;;;;;;79.47;73.97;;;;;;;7.81;100.00;100073.69;4921279;29;20051;-80
2023/12/02 07:10:44;;;;;;;76.68;71.32;;;;;;;7.22;100.00;100067.28;4924399;29;20436;-80
2023/12/02 07:13:11;;;;;;;75.28;70.18;;;;;;;7.78;100.00;100063.53;4924362;29;20499;-80
2023/12/02 07:15:40;;;;;;;72.57;67.68;;;;;;;7.79;100.00;100058.00;4918684;29;20054;-80
2023/12/02 07:18:06;;;;;;;67.85;63.10;;;;;;;8.05;100.00;100048.47;4921430;29;20873;-80
2023/12/02 07:20:33;;;;;;;64.80;59.72;;;;;;;8.22;100.00;100046.19;4923241;29;20409;-79
2023/12/02 07:23:00;;;;;;;75.35;69.85;;;;;;;8.69;100.00;100060.94;4925116;29;20059;-79
2023/12/02 07:25:28;;;;;;;77.32;71.53;;;;;;;9.01;100.00;100062.84;4916139;29;20056;-79
2023/12/02 07:27:55;;;;;;;58.40;54.10;;;;;;;9.06;100.00;100057.72;4920922;29;20060;-79
2023/12/02 07:30:22;;;;;;;52.20;48.30;;;;;;;9.34;100.00;100060.81;4923463;29;20531;-79
2023/12/02 07:32:50;;;;;;;43.22;40.15;;;;;;;9.26;100.00;100060.25;4921367;29;20052;-78
2023/12/02 07:35:17;;;;;;;37.83;35.30;;;;;;;9.02;100.00;100054.69;4924121;29;20560;-80
2023/12/02 07:37:47;;;;;;;38.20;35.70;;;;;;;10.09;100.00;100044.94;4926184;29;20071;-79
2023/12/02 07:40:14;;;;;;;39.00;36.60;;;;;;;9.74;100.00;100054.41;4925098;29;20055;-80
2023/12/02 07:42:41;;;;;;;38.80;36.33;;;;;;;9.35;100.00;100057.16;4916520;29;20060;-78
2023/12/02 07:45:09;;;;;;;36.67;34.33;;;;;;;9.21;100.00;100047.66;4918874;29;20147;-78
2023/12/02 07:47:36;;;;;;;34.25;32.08;;;;;;;9.35;100.00;100059.00;4922524;29;20071;-81
2023/12/02 07:50:04;;;;;;;33.95;31.95;;;;;;;9.91;100.00;100058.16;4923648;29;20048;-80
2023/12/02 07:52:31;;;;;;;34.78;32.63;;;;;;;9.89;100.00;100062.84;4923222;29;20052;-81
2023/12/02 07:54:58;;;;;;;35.92;33.63;;;;;;;9.66;100.00;100076.72;4921564;29;20072;-81
2023/12/02 07:57:26;;;;;;;44.47;41.58;;;;;;;11.55;100.00;100078.75;4920586;29;20048;-81
2023/12/02 07:59:54;;;;;;;42.45;39.78;;;;;;;11.46;100.00;100083.56;4923491;29;20507;-81
2023/12/02 08:02:21;;;;;;;43.10;40.22;;;;;;;11.23;100.00;100079.81;4920184;29;20500;-81
2023/12/02 08:04:48;;;;;;;42.95;40.00;;;;;;;12.70;100.00;100083.53;4921556;29;20500;-81
2023/12/02 08:07:16;;;;;;;44.88;41.78;;;;;;;13.03;100.00;100093.53;4919444;29;20754;-81
2023/12/02 08:09:43;;;;;;;39.55;37.00;;;;;;;11.62;100.00;100088.25;4925451;29;20051;-81
2023/12/02 08:12:10;;;;;;;30.48;28.58;;;;;;;11.49;100.00;100087.63;4915526;29;20103;-82
2023/12/02 08:14:37;;;;;;;31.85;29.75;;;;;;;10.45;100.00;100083.19;4915674;29;20048;-82
2023/12/02 08:17:04;;;;;;;30.33;28.30;;;;;;;9.99;100.00;100088.91;4923316;29;20051;-79
2023/12/02 08:19:31;;;;;;;34.03;31.63;;;;;;;9.90;100.00;100091.03;4916995;29;20063;-79
2023/12/02 08:21:58;;;;;;;30.85;28.85;;;;;;;9.52;100.00;100078.66;4917156;29;20044;-79
2023/12/02 08:24:27;;;;;;;28.98;26.98;;;;;;;9.40;100.00;100093.59;4918378;29;20166;-81
2023/12/02 08:26:53;;;;;;;35.22;32.53;;;;;;;9.29;100.00;100088.97;4920564;29;20063;-81
2023/12/02 08:29:21;;;;;;;36.33;34.13;;;;;;;9.24;100.00;100094.13;4924580;29;20077;-81
2023/12/02 08:31:47;;;;;;;38.92;36.53;;;;;;;9.09;100.00;100092.56;4922325;29;20111;-80
2023/12/02 08:34:15;;;;;;;41.53;39.05;;;;;;;9.08;100.00;100082.19;4924644;29;20059;-81
2023/12/02 08:36:42;;;;;;;41.25;38.75;;;;;;;9.08;100.00;100090.13;4922051;29;20496;-81
2023/12/02 08:39:09;;;;;;;34.95;32.97;;;;;;;9.07;100.00;100088.47;4923715;29;20521;-81
2023/12/02 08:41:38;;;;;;;34.88;32.88;;;;;;;9.43;100.00;100066.69;4921429;29;20458;-81
2023/12/02 08:44:07;;;;;;;39.88;37.47;;;;;;;9.80;100.00;100082.72;4924836;29;20056;-81
2023/12/02 08:46:43;;;;;;;37.75;35.10;;;;;;;9.42;100.00;100075.66;4931409;29;20040;-79
2023/12/02 08:49:10;;;;;;;39.47;37.17;;;;;;;10.00;100.00;100079.94;4925290;28;20059;-79
2023/12/02 08:51:39;;;;;;;39.08;36.78;;;;;;;9.81;100.00;100071.91;4924433;29;20463;-79
2023/12/02 08:54:06;;;;;;;38.35;36.00;;;;;;;9.61;100.00;100077.34;4925587;29;20052;-79
2023/12/02 08:56:33;;;;;;;37.35;35.05;;;;;;;9.21;100.00;100074.16;4923058;29;20384;-79
2023/12/02 08:59:02;;;;;;;35.92;33.53;;;;;;;9.12;100.00;100070.13;4922765;29;20057;-81
2023/12/02 09:01:29;;;;;;;35.25;33.08;;;;;;;9.07;100.00;100068.09;4931190;29;20141;-79
2023/12/02 09:03:56;;;;;;;34.15;32.03;;;;;;;9.04;100.00;100054.47;4929976;29;20115;-78
2023/12/02 09:06:23;;;;;;;35.60;33.40;;;;;;;9.01;100.00;100050.41;4930905;29;20530;-79
2023/12/02 09:08:50;;;;;;;34.13;31.83;;;;;;;9.13;100.00;100042.59;4930872;29;20059;-79
2023/12/02 09:11:17;;;;;;;31.65;29.65;;;;;;;9.25;100.00;100026.84;4933494;29;20730;-78
2023/12/02 09:13:47;;;;;;;31.08;28.98;;;;;;;9.21;100.00;100018.50;4932660;29;20174;-79
2023/12/02 09:16:21;;;;;;;39.63;37.53;;;;;;;9.36;100.00;100024.31;4929356;29;20048;-80
2023/12/02 09:18:48;;;;;;;40.10;37.90;;;;;;;9.08;100.00;100022.06;4931816;29;20531;-79
2023/12/02 09:21:44;;;;;;;37.50;35.40;;;;;;;9.04;100.00;100017.38;4935651;29;20051;-79
2023/12/02 09:24:35;;;;;;;41.00;38.80;;;;;;;9.05;100.00;100013.72;4932042;29;20059;-79
2023/12/02 09:27:05;;;;;;;42.05;39.75;;;;;;;8.98;100.00;100003.16;4929138;29;20044;-79
2023/12/02 09:29:41;;;;;;;39.22;37.10;;;;;;;8.99;100.00;100006.63;4930188;29;20122;-79
2023/12/02 09:32:38;;;;;;;39.30;37.15;;;;;;;9.06;100.00;100008.22;4928374;29;20082;-78
2023/12/02 09:35:06;;;;;;;36.92;34.83;;;;;;;9.05;100.00;99992.53;4924527;29;20048;-79
2023/12/02 09:37:55;;;;;;;34.63;32.63;;;;;;;9.28;100.00;99982.16;4932181;29;20079;-79
2023/12/02 09:41:01;;;;;;;36.25;34.15;;;;;;;9.24;100.00;99980.19;4928518;29;20059;-79
2023/12/02 09:43:46;;;;;;;32.05;30.25;;;;;;;9.15;100.00;99969.84;4903939;28;20131;-81
2023/12/02 09:46:34;;;;;;;34.10;32.00;;;;;;;9.10;100.00;99967.00;4933375;29;20078;-79
2023/12/02 09:49:33;;;;;;;35.50;33.40;;;;;;;9.04;100.00;99961.75;4929758;29;20051;-79
2023/12/02 09:52:20;;;;;;;33.92;31.80;;;;;;;9.05;100.00;99963.41;4913071;29;20056;-79
2023/12/02 09:54:58;;;;;;;37.88;35.45;;;;;;;9.06;100.00;99943.81;4932841;29;20048;-79
2023/12/02 09:57:33;;;;;;;39.08;36.67;;;;;;;9.00;100.00;99945.50;4931737;29;20118;-81
2023/12/02 10:00:09;;;;;;;35.28;33.13;;;;;;;9.05;100.00;99937.72;4924856;29;20055;-80
2023/12/02 10:02:58;;;;;;;37.25;34.53;;;;;;;9.09;100.00;99932.78;4931023;29;20244;-79
2023/12/02 10:05:33;;;;;;;51.90;47.63;;;;;;;10.80;100.00;99930.38;4930649;29;20138;-81
2023/12/02 10:08:07;;;;;;;84.82;78.53;;;;;;;11.11;100.00;99939.94;4933675;29;20062;-81
2023/12/02 10:10:44;;;;;;;63.80;58.25;;;;;;;10.21;100.00;99922.13;4931114;29;20061;-81
2023/12/02 10:13:19;;;;;;;65.07;59.25;;;;;;;10.42;100.00;99921.69;4929389;29;20818;-75
2023/12/02 10:16:02;;;;;;;49.55;45.60;;;;;;;10.17;100.00;99913.00;4927774;29;20443;-81
2023/12/02 10:18:36;;;;;;;41.60;38.00;;;;;;;9.84;100.00;99885.03;4930297;29;20136;-80
2023/12/02 10:21:11;;;;;;;45.20;41.45;;;;;;;10.23;100.00;99896.19;4928449;29;20524;-80
2023/12/02 10:23:52;;;;;;;41.83;38.05;;;;;;;9.85;100.00;99876.03;4932678;29;20055;-80
2023/12/02 10:26:27;;;;;;;39.22;35.65;;;;;;;9.91;100.00;99869.81;4932531;29;20052;-80
2023/12/02 10:29:13;;;;;;;37.03;34.20;;;;;;;9.74;100.00;99882.03;4930844;29;20050;-81
2023/12/02 10:31:50;;;;;;;32.83;30.45;;;;;;;9.74;100.00;99861.66;4932783;29;20122;-80
2023/12/02 10:34:24;;;;;;;38.42;35.42;;;;;;;9.70;100.00;99847.22;4929604;29;20546;-79
2023/12/02 10:36:56;;;;;;;33.17;31.08;;;;;;;9.72;100.00;99844.34;4929180;29;20051;-79
2023/12/02 10:39:31;;;;;;;38.20;35.05;;;;;;;9.67;100.00;99815.84;4933869;29;20150;-79
2023/12/02 10:42:03;;;;;;;37.85;35.20;;;;;;;9.82;100.00;99826.88;4932908;29;20517;-79
2023/12/02 10:44:33;;;;;;;38.85;36.15;;;;;;;10.62;100.00;99871.00;4933282;29;20055;-84
2023/12/02 10:47:00;;;;;;;47.80;32.53;;;;;;;10.01;100.00;99882.56;4932216;29;20582;-85
2023/12/02 10:49:30;;;;;;;36.75;34.35;;;;;;;9.98;100.00;99894.44;4925909;29;20076;-79
2023/12/02 10:52:06;;;;;;;37.58;35.08;;;;;;;9.80;100.00;99915.66;4928194;29;20139;-79
2023/12/02 10:54:35;;;;;;;36.22;34.03;;;;;;;9.72;100.00;99930.00;4928978;29;20052;-79
2023/12/02 10:57:07;;;;;;;37.80;35.42;;;;;;;9.73;100.00;99934.28;4928421;29;20055;-79
2023/12/02 10:59:36;;;;;;;33.33;31.52;;;;;;;9.78;100.00;99933.63;4927377;29;20066;-78
2023/12/02 11:02:20;;;;;;;34.88;32.75;;;;;;;9.68;100.00;99935.97;4929352;29;20060;-79
2023/12/02 11:04:58;;;;;;;34.90;33.00;;;;;;;9.73;100.00;99944.88;4927190;29;20589;-79
2023/12/02 11:07:29;;;;;;;52.35;48.67;;;;;;;11.30;100.00;99951.31;4934433;29;20049;-80
2023/12/02 11:10:03;;;;;;;79.47;74.25;;;;;;;11.27;100.00;99951.75;4924272;29;20063;-79
2023/12/02 11:12:33;;;;;;;90.88;85.18;;;;;;;10.92;100.00;99955.97;4921435;29;20508;-79
2023/12/02 11:15:09;;;;;;;81.38;73.97;;;;;;;10.78;100.00;99962.50;4923118;29;20055;-79
2023/12/02 11:17:41;;;;;;;79.00;73.70;;;;;;;10.64;100.00;99950.41;4921160;29;20047;-78